This is the latest recevied weather packets stored in our database for station/object AA7VG. If no packets are shown the sender has not sent any weather packets the latest 10 day(s).
| Time | Temp. | Humidity | Pressure | Rain* | Wind** | Luminosity | Snow |
|---|---|---|---|---|---|---|---|
| 1788481872 | 25.56° C | 24% | 1009.3 hPa | 0 mm | - | - | - |
| 1788481568 | 24.44° C | 25% | 1009.5 hPa | 0 mm | - | - | - |
| 1788481262 | 24.44° C | 26% | 1009.5 hPa | 0 mm | - | - | - |
| 1788480957 | 23.89° C | 26% | 1009.4 hPa | 0 mm | - | - | - |
| 1788480656 | 23.33° C | 26% | 1009.1 hPa | 0 mm | - | - | - |
| 1788480351 | 23.89° C | 25% | 1009.4 hPa | 0 mm | - | - | - |
| 1788480048 | 23.89° C | 26% | 1009.6 hPa | 0 mm | - | - | - |
| 1788479747 | 23.89° C | 28% | 1009.4 hPa | 0 mm | - | - | - |
| 1788479443 | 23.89° C | 27% | 1009.4 hPa | 0 mm | - | - | - |
| 1788479138 | 23.89° C | 26% | 1009.4 hPa | 0 mm | - | - | - |
| 1788478834 | 23.89° C | 25% | 1009.1 hPa | 0 mm | - | - | - |
| 1788478530 | 24.44° C | 24% | 1009.5 hPa | 0 mm | - | - | - |
| 1788478225 | 25° C | 25% | 1009.5 hPa | 0 mm | - | - | - |
| 1788477921 | 24.44° C | 26% | 1009.3 hPa | 0 mm | - | - | - |
| 1788477621 | 24.44° C | 28% | 1009.4 hPa | 0 mm | - | - | - |
| 1788477315 | 24.44° C | 27% | 1009.6 hPa | 0 mm | - | - | - |
| 1788477009 | 24.44° C | 26% | 1009.4 hPa | 0 mm | - | - | - |
| 1788476706 | 24.44° C | 27% | 1009.3 hPa | 0 mm | - | - | - |
| 1788476403 | 25° C | 25% | 1009.4 hPa | 0 mm | - | - | - |
| 1788476097 | 25.56° C | 25% | 1009.6 hPa | 0 mm | - | - | - |
| 1788475793 | 24.44° C | 25% | 1009.3 hPa | 0 mm | - | - | - |
| 1788475489 | 24.44° C | 26% | 1009.4 hPa | 0 mm | - | - | - |
| 1788475185 | 24.44° C | 27% | 1009.4 hPa | 0 mm | - | - | - |
| 1788474884 | 23.89° C | 27% | 1009.3 hPa | 0 mm | - | - | - |
| 1788474583 | 24.44° C | 27% | 1009.4 hPa | 0 mm | - | - | - |
* Rain latest hour (hover to see other rain measurements)
** Current wind speed in m/s (hover to see current wind gust speed)